Time;durP1;ratioP1;P1;durP2;ratioP2;P2;SDS_P1;SDS_P2;PMS_P1;PMS_P2;Temp;Humidity;BMP_temperature;BMP_pressure;BME280_temperature;BME280_humidity;BME280_pressure;Samples;Min_cycle;Max_cycle;Signal;HPM_P1;HPM_P2
2023/08/23 00:00:05;;;;;;;6.73;6.00;;;;;;;19.68;100.00;100428.44;5007086;28;20278;-65
2023/08/23 00:02:30;;;;;;;6.83;6.13;;;;;;;19.68;100.00;100428.44;5027806;28;20202;-65
2023/08/23 00:04:55;;;;;;;9.20;6.20;;;;;;;19.63;100.00;100425.41;5013053;28;20179;-65
2023/08/23 00:07:21;;;;;;;10.37;6.60;;;;;;;19.65;100.00;100421.72;5013333;28;20207;-64
2023/08/23 00:09:46;;;;;;;6.83;6.17;;;;;;;19.60;100.00;100420.47;5013391;28;20182;-65
2023/08/23 00:12:11;;;;;;;11.33;7.03;;;;;;;19.62;100.00;100429.81;5018876;28;20304;-65
2023/08/23 00:14:37;;;;;;;8.27;5.90;;;;;;;19.59;100.00;100427.47;5013148;28;20278;-65
2023/08/23 00:17:02;;;;;;;7.83;6.37;;;;;;;19.61;100.00;100433.38;5013154;28;20183;-65
2023/08/23 00:19:27;;;;;;;12.43;6.40;;;;;;;19.60;100.00;100426.50;5013415;28;20190;-65
2023/08/23 00:21:53;;;;;;;8.33;6.87;;;;;;;19.59;100.00;100432.69;5016587;28;21015;-65
2023/08/23 00:24:19;;;;;;;7.00;6.30;;;;;;;19.54;100.00;100429.66;5013898;28;20269;-65
2023/08/23 00:26:45;;;;;;;7.13;5.83;;;;;;;19.54;100.00;100431.47;5011472;28;20179;-65
2023/08/23 00:29:10;;;;;;;7.27;6.57;;;;;;;19.56;100.00;100432.13;5013386;28;20265;-66
2023/08/23 00:31:35;;;;;;;6.93;6.23;;;;;;;19.47;100.00;100438.97;5014737;28;20249;-65
2023/08/23 00:34:00;;;;;;;6.63;6.07;;;;;;;19.46;100.00;100432.09;5016335;28;20692;-66
2023/08/23 00:36:26;;;;;;;7.53;6.70;;;;;;;19.44;100.00;100431.44;5012746;28;20181;-65
2023/08/23 00:38:51;;;;;;;8.13;6.70;;;;;;;19.46;100.00;100435.56;5012915;28;20207;-65
2023/08/23 00:41:16;;;;;;;8.80;6.40;;;;;;;19.45;100.00;100431.28;5012196;28;20767;-66
2023/08/23 00:43:41;;;;;;;8.37;6.87;;;;;;;19.39;100.00;100425.75;5018235;28;20203;-66
2023/08/23 00:46:07;;;;;;;10.13;7.10;;;;;;;19.37;100.00;100432.91;5012069;28;20183;-65
2023/08/23 00:48:32;;;;;;;6.67;6.13;;;;;;;19.33;100.00;100432.34;5012825;28;20588;-65
2023/08/23 00:50:59;;;;;;;7.43;6.53;;;;;;;19.33;100.00;100432.34;5009895;28;20234;-65
2023/08/23 00:53:24;;;;;;;10.33;7.13;;;;;;;19.26;100.00;100433.84;5020630;28;20182;-65
2023/08/23 00:55:49;;;;;;;9.80;7.17;;;;;;;19.26;100.00;100428.63;5011612;28;20673;-66
2023/08/23 00:58:15;;;;;;;7.40;6.80;;;;;;;19.18;100.00;100429.28;5011241;28;20178;-66
2023/08/23 01:00:41;;;;;;;8.20;7.40;;;;;;;19.05;100.00;100426.88;5007246;28;20233;-65
2023/08/23 01:03:06;;;;;;;9.63;7.70;;;;;;;19.05;100.00;100429.47;5011147;28;20209;-65
2023/08/23 01:05:48;;;;;;;8.70;7.80;;;;;;;19.01;100.00;100431.56;5011703;28;20657;-65
2023/08/23 01:08:38;;;;;;;8.73;6.93;;;;;;;19.00;100.00;100429.06;5012490;28;20179;-65
2023/08/23 01:11:22;;;;;;;8.97;7.30;;;;;;;18.97;100.00;100442.38;5010227;28;20221;-65
2023/08/23 01:14:04;;;;;;;9.07;7.73;;;;;;;18.93;100.00;100435.75;5017318;28;20179;-66
2023/08/23 01:16:32;;;;;;;10.63;7.40;;;;;;;18.94;100.00;100440.00;5010939;28;20624;-65
2023/08/23 01:18:59;;;;;;;11.20;8.57;;;;;;;18.88;100.00;100443.94;5011879;28;20186;-64
2023/08/23 01:21:36;;;;;;;10.53;8.87;;;;;;;18.77;100.00;100444.84;5012471;28;20245;-65
2023/08/23 01:24:08;;;;;;;9.93;7.93;;;;;;;18.77;100.00;100442.22;5002728;28;20722;-65
2023/08/23 01:26:40;;;;;;;9.70;8.20;;;;;;;18.78;100.00;100441.28;5012064;28;20183;-65
2023/08/23 01:29:05;;;;;;;12.80;8.47;;;;;;;18.76;100.00;100447.56;5012130;28;20202;-66
2023/08/23 01:31:35;;;;;;;12.07;8.50;;;;;;;18.67;100.00;100446.56;5012847;28;20618;-66
2023/08/23 01:34:09;;;;;;;11.20;8.67;;;;;;;18.66;100.00;100442.31;5014965;28;20202;-67
2023/08/23 01:36:36;;;;;;;11.17;8.67;;;;;;;18.66;100.00;100430.09;5011972;28;20194;-65
2023/08/23 01:42:24;;;;;;;9.73;8.73;;;;;;;18.44;100.00;100433.66;5015769;28;20240;-65
2023/08/23 01:44:52;;;;;;;10.53;9.00;;;;;;;18.38;100.00;100428.94;5011466;28;20210;-65
2023/08/23 01:47:18;;;;;;;10.77;8.77;;;;;;;18.35;100.00;100432.63;5012033;28;20186;-65
2023/08/23 01:49:43;;;;;;;10.87;7.87;;;;;;;18.39;100.00;100428.84;5011483;28;20175;-65
2023/08/23 01:52:09;;;;;;;10.73;8.63;;;;;;;18.47;100.00;100432.56;5017168;28;20771;-66
2023/08/23 01:54:34;;;;;;;11.37;8.57;;;;;;;18.45;100.00;100432.69;5010997;28;20186;-65
2023/08/23 01:56:59;;;;;;;8.83;8.07;;;;;;;18.50;100.00;100433.13;5012017;28;20202;-66
2023/08/23 01:59:24;;;;;;;10.93;8.67;;;;;;;18.51;100.00;100428.78;5011758;28;20546;-66
2023/08/23 02:01:50;;;;;;;8.50;7.80;;;;;;;18.55;100.00;100433.59;5015229;28;20218;-66
2023/08/23 02:04:17;;;;;;;9.43;7.77;;;;;;;18.52;100.00;100433.03;5012641;28;20709;-66
2023/08/23 02:06:43;;;;;;;12.07;9.47;;;;;;;18.50;100.00;100434.94;5011661;28;20270;-66
2023/08/23 02:09:09;;;;;;;11.13;8.03;;;;;;;18.48;100.00;100431.63;5012663;28;20542;-66
2023/08/23 02:11:36;;;;;;;11.30;7.93;;;;;;;18.42;100.00;100432.13;5017633;28;20263;-66
2023/08/23 02:14:01;;;;;;;10.70;8.67;;;;;;;18.37;100.00;100417.72;5018298;28;20558;-66
2023/08/23 02:16:28;;;;;;;11.97;8.77;;;;;;;18.39;100.00;100426.25;5015621;28;20182;-66
2023/08/23 02:18:53;;;;;;;13.07;8.77;;;;;;;18.38;100.00;100426.34;5015567;28;20207;-66
2023/08/23 02:21:19;;;;;;;11.80;9.03;;;;;;;18.37;100.00;100422.91;5015077;28;20703;-66
2023/08/23 02:23:44;;;;;;;11.83;8.50;;;;;;;18.33;100.00;100423.28;5020720;28;20198;-65
2023/08/23 02:26:09;;;;;;;11.17;8.17;;;;;;;18.22;100.00;100427.63;5015050;28;20182;-65
2023/08/23 02:28:34;;;;;;;8.97;7.83;;;;;;;18.29;100.00;100412.31;5015244;28;20626;-64
2023/08/23 02:31:03;;;;;;;11.07;8.90;;;;;;;18.34;100.00;100412.75;5012572;28;20224;-65
2023/08/23 02:33:29;;;;;;;11.70;8.40;;;;;;;18.29;100.00;100408.88;5022359;28;20201;-65
2023/08/23 02:35:54;;;;;;;9.93;8.13;;;;;;;18.30;100.00;100400.13;5014426;28;20210;-65
2023/08/23 02:38:19;;;;;;;9.70;8.70;;;;;;;18.16;100.00;100409.03;5015525;28;20191;-65
2023/08/23 02:40:45;;;;;;;9.17;8.00;;;;;;;18.25;100.00;100407.50;5010363;28;20299;-64
2023/08/23 02:43:10;;;;;;;9.70;8.73;;;;;;;18.26;100.00;100415.16;5024939;28;20194;-65
2023/08/23 02:45:39;;;;;;;10.37;9.27;;;;;;;18.22;100.00;100419.81;5014727;28;20174;-65
2023/08/23 02:48:06;;;;;;;9.73;8.70;;;;;;;18.15;100.00;100418.66;5014833;28;20245;-65
2023/08/23 02:50:31;;;;;;;9.73;8.83;;;;;;;18.18;100.00;100415.81;5008437;28;20228;-65
2023/08/23 02:52:56;;;;;;;9.83;8.37;;;;;;;18.18;100.00;100414.97;5026070;28;20265;-65
2023/08/23 02:55:22;;;;;;;9.93;8.90;;;;;;;18.12;100.00;100405.06;5014404;28;20210;-65
2023/08/23 02:57:47;;;;;;;9.93;8.90;;;;;;;18.11;100.00;100403.38;5014804;28;20657;-65
2023/08/23 03:00:13;;;;;;;12.53;9.70;;;;;;;18.08;100.00;100404.47;5006067;28;20293;-65
2023/08/23 03:02:38;;;;;;;11.47;9.97;;;;;;;18.04;100.00;100406.50;5028274;28;20175;-65
2023/08/23 03:05:04;;;;;;;9.80;8.87;;;;;;;18.05;100.00;100415.97;5014207;28;20186;-66
2023/08/23 03:07:29;;;;;;;11.53;10.43;;;;;;;18.04;100.00;100408.28;5014302;28;20522;-65
2023/08/23 03:09:54;;;;;;;12.70;9.60;;;;;;;17.93;100.00;100409.13;5013139;28;20594;-65
2023/08/23 03:12:19;;;;;;;10.37;9.23;;;;;;;17.99;100.00;100403.44;5019649;28;20225;-65
2023/08/23 03:14:45;;;;;;;10.80;9.30;;;;;;;17.94;100.00;100410.81;5014143;28;20183;-64
2023/08/23 03:17:10;;;;;;;12.43;11.10;;;;;;;17.94;100.00;100416.00;5014430;28;20256;-66
2023/08/23 03:19:36;;;;;;;13.17;10.17;;;;;;;17.95;100.00;100406.41;5014511;28;20194;-66
2023/08/23 03:22:02;;;;;;;11.07;10.10;;;;;;;17.95;100.00;100416.81;5018925;28;20241;-65
2023/08/23 03:24:27;;;;;;;12.33;10.57;;;;;;;17.89;100.00;100405.94;5013834;28;20198;-64
2023/08/23 03:26:53;;;;;;;13.97;11.37;;;;;;;17.85;100.00;100408.91;5014215;28;20181;-65
2023/08/23 03:29:18;;;;;;;11.93;10.83;;;;;;;17.85;100.00;100417.53;5014386;28;20191;-64
2023/08/23 03:31:43;;;;;;;13.00;11.33;;;;;;;17.76;100.00;100407.84;4996590;28;20225;-65
2023/08/23 03:34:08;;;;;;;11.30;10.17;;;;;;;17.80;100.00;100413.66;5016204;28;20244;-65
2023/08/23 03:36:34;;;;;;;16.03;10.23;;;;;;;17.77;100.00;100408.72;5012616;28;20210;-65
2023/08/23 03:38:59;;;;;;;11.50;10.50;;;;;;;17.77;100.00;100406.91;5014293;28;20214;-66
2023/08/23 03:41:24;;;;;;;11.23;10.13;;;;;;;17.73;100.00;100401.13;5014289;28;20236;-65
2023/08/23 03:43:49;;;;;;;12.37;9.87;;;;;;;17.73;100.00;100393.31;5018618;28;20202;-65
2023/08/23 03:46:15;;;;;;;12.97;9.87;;;;;;;17.77;100.00;100393.91;5013301;28;20175;-65
2023/08/23 03:48:40;;;;;;;12.80;10.00;;;;;;;17.67;100.00;100393.81;5013994;28;20256;-66
2023/08/23 03:51:05;;;;;;;10.60;9.70;;;;;;;17.67;100.00;100400.81;5005291;28;20217;-66
2023/08/23 03:53:30;;;;;;;10.53;9.50;;;;;;;17.69;100.00;100396.31;5020811;28;20191;-66
2023/08/23 03:55:56;;;;;;;13.37;10.10;;;;;;;17.70;100.00;100408.34;5012777;28;20194;-65
2023/08/23 03:58:21;;;;;;;10.43;9.50;;;;;;;17.67;100.00;100404.22;5013749;28;20238;-65
2023/08/23 04:00:52;;;;;;;12.23;9.30;;;;;;;17.62;100.00;100408.97;5009298;28;20225;-65
2023/08/23 04:03:17;;;;;;;11.70;10.60;;;;;;;17.66;100.00;100412.16;5022453;28;20282;-65
2023/08/23 04:05:42;;;;;;;16.83;9.33;;;;;;;17.60;100.00;100408.28;5012580;28;20229;-66
2023/08/23 04:08:07;;;;;;;20.97;11.07;;;;;;;17.55;100.00;100410.41;5013737;28;20175;-65
2023/08/23 04:10:33;;;;;;;10.93;9.67;;;;;;;17.58;100.00;100415.38;5007354;28;20301;-65
2023/08/23 04:12:58;;;;;;;11.90;10.37;;;;;;;17.56;100.00;100409.47;5024869;28;20549;-64
2023/08/23 04:15:23;;;;;;;11.30;10.20;;;;;;;17.61;100.00;100409.91;5012808;28;20248;-65
2023/08/23 04:17:48;;;;;;;11.73;10.53;;;;;;;17.63;100.00;100415.81;5012888;28;20666;-65
2023/08/23 04:20:14;;;;;;;13.30;11.03;;;;;;;17.51;100.00;100411.59;5004465;28;20201;-66
2023/08/23 04:22:40;;;;;;;12.83;10.63;;;;;;;17.41;100.00;100403.69;5026718;28;20311;-65
2023/08/23 04:25:05;;;;;;;12.90;10.70;;;;;;;17.36;100.00;100406.66;5012579;28;20187;-65
2023/08/23 04:27:31;;;;;;;10.23;9.30;;;;;;;17.38;100.00;100401.34;5013243;28;20179;-65
2023/08/23 04:29:56;;;;;;;10.60;9.53;;;;;;;17.41;100.00;100404.53;5012859;28;20349;-65
2023/08/23 04:32:21;;;;;;;10.97;9.93;;;;;;;17.45;100.00;100407.69;5018083;28;20701;-65
2023/08/23 04:34:46;;;;;;;12.97;10.23;;;;;;;17.47;100.00;100400.59;5010809;28;20277;-66
2023/08/23 04:37:12;;;;;;;11.13;10.17;;;;;;;17.50;100.00;100402.97;5013083;28;20607;-66
2023/08/23 04:39:37;;;;;;;11.73;10.53;;;;;;;17.57;100.00;100401.53;5012409;28;20183;-66
2023/08/23 04:42:03;;;;;;;11.93;10.73;;;;;;;17.51;100.00;100399.41;5018353;28;20226;-66
2023/08/23 04:44:29;;;;;;;11.87;10.17;;;;;;;17.52;100.00;100405.44;5012099;28;20684;-66
2023/08/23 04:46:54;;;;;;;15.60;11.57;;;;;;;17.48;100.00;100404.06;5012813;28;20179;-66
2023/08/23 04:49:20;;;;;;;11.10;9.90;;;;;;;17.57;100.00;100405.91;5011089;28;20709;-66
2023/08/23 04:51:45;;;;;;;10.23;9.30;;;;;;;17.57;100.00;100406.72;5015603;28;20305;-66
2023/08/23 04:54:11;;;;;;;11.30;9.83;;;;;;;17.66;100.00;100406.94;5014163;28;20270;-66
2023/08/23 04:56:36;;;;;;;14.93;9.20;;;;;;;17.71;100.00;100399.59;5012475;28;20618;-66
2023/08/23 04:59:02;;;;;;;10.87;9.77;;;;;;;17.79;100.00;100405.03;5012434;28;20596;-66
2023/08/23 05:01:27;;;;;;;13.50;10.23;;;;;;;17.77;100.00;100406.91;5004205;28;20238;-65
2023/08/23 05:03:53;;;;;;;14.60;9.30;;;;;;;17.84;100.00;100404.66;5010488;28;20253;-65
2023/08/23 05:06:18;;;;;;;15.67;14.33;;;;;;;17.96;100.00;100413.28;5012199;28;20622;-64
2023/08/23 05:08:43;;;;;;;16.40;13.63;;;;;;;18.03;100.00;100411.84;5012296;28;20179;-65
2023/08/23 05:11:08;;;;;;;13.20;12.10;;;;;;;18.06;100.00;100411.59;5010970;28;20260;-64
2023/08/23 05:13:34;;;;;;;13.40;12.10;;;;;;;18.12;100.00;100407.66;5018689;28;20654;-65
2023/08/23 05:15:59;;;;;;;12.07;10.83;;;;;;;18.19;100.00;100417.44;5011676;28;20223;-65
2023/08/23 05:18:24;;;;;;;12.57;9.37;;;;;;;18.27;100.00;100416.81;5011958;28;20186;-65
2023/08/23 05:21:03;;;;;;;10.90;9.90;;;;;;;18.30;100.00;100413.16;5003851;28;20250;-65
2023/08/23 05:23:28;;;;;;;12.30;9.87;;;;;;;18.41;100.00;100423.50;5019452;28;20541;-65
2023/08/23 05:25:54;;;;;;;14.67;10.17;;;;;;;18.50;100.00;100419.31;5011601;28;20232;-65
2023/08/23 05:28:20;;;;;;;12.83;9.20;;;;;;;18.61;100.00;100416.63;5012033;28;21040;-65
2023/08/23 05:30:46;;;;;;;13.67;8.90;;;;;;;18.54;100.00;100423.28;5007630;28;20316;-65
2023/08/23 05:33:12;;;;;;;12.90;9.00;;;;;;;18.67;100.00;100417.91;5021284;28;20281;-65
2023/08/23 05:35:39;;;;;;;10.13;9.03;;;;;;;18.78;100.00;100420.44;5011652;28;20179;-67
2023/08/23 05:38:05;;;;;;;9.90;8.87;;;;;;;18.88;100.00;100420.47;5012047;28;20247;-66
2023/08/23 05:40:30;;;;;;;9.63;8.60;;;;;;;19.02;100.00;100432.38;5005619;28;20305;-66
2023/08/23 05:42:55;;;;;;;11.10;8.77;;;;;;;19.12;100.00;100433.22;5023314;28;20186;-64
2023/08/23 05:45:22;;;;;;;10.57;8.33;;;;;;;19.19;100.00;100438.75;5009587;28;20240;-65
2023/08/23 05:47:47;;;;;;;10.10;8.33;;;;;;;19.29;100.00;100444.00;5011450;28;20189;-65
2023/08/23 05:50:12;;;;;;;9.70;8.80;;;;;;;19.42;100.00;100438.56;5003289;28;20187;-65
2023/08/23 05:52:37;;;;;;;13.10;8.27;;;;;;;19.51;100.00;100442.94;5025671;28;20859;-65
2023/08/23 05:55:03;;;;;;;12.37;7.90;;;;;;;19.58;100.00;100443.25;5011292;28;20198;-65
2023/08/23 05:57:28;;;;;;;9.70;8.70;;;;;;;19.63;100.00;100441.06;5011505;28;20237;-66
2023/08/23 05:59:53;;;;;;;12.37;9.27;;;;;;;19.77;100.00;100440.69;5011700;28;20260;-64
2023/08/23 06:02:19;;;;;;;9.10;7.80;;;;;;;19.84;100.00;100438.38;5016765;28;20711;-64
2023/08/23 06:04:45;;;;;;;9.77;8.57;;;;;;;19.70;100.00;100436.97;5011435;28;20210;-65
2023/08/23 06:07:10;;;;;;;11.37;7.30;;;;;;;19.93;100.00;100439.34;5012095;28;20205;-64
2023/08/23 06:09:35;;;;;;;8.60;7.53;;;;;;;19.99;100.00;100439.66;5011418;28;20175;-65
2023/08/23 06:12:00;;;;;;;9.20;7.90;;;;;;;20.16;100.00;100447.75;5016261;28;20529;-65
2023/08/23 06:14:26;;;;;;;8.80;7.90;;;;;;;20.30;100.00;100452.56;5009905;28;20187;-64
2023/08/23 06:16:51;;;;;;;10.53;7.53;;;;;;;20.38;100.00;100453.63;5011079;28;20179;-64
2023/08/23 06:19:16;;;;;;;7.90;7.13;;;;;;;20.53;100.00;100457.50;5011872;28;20286;-65
2023/08/23 06:21:42;;;;;;;8.00;6.40;;;;;;;20.60;100.00;100453.34;5013512;28;20234;-66
2023/08/23 06:24:08;;;;;;;9.43;6.50;;;;;;;20.73;100.00;100454.88;5009784;28;20559;-64
2023/08/23 06:26:33;;;;;;;10.30;6.50;;;;;;;20.74;100.00;100448.66;5011226;28;20183;-64
2023/08/23 06:28:59;;;;;;;9.03;7.20;;;;;;;20.84;100.00;100449.47;5010332;28;20236;-64
2023/08/23 06:31:24;;;;;;;10.63;7.43;;;;;;;21.08;100.00;100456.00;5011843;28;20221;-63
2023/08/23 06:33:49;;;;;;;10.67;6.77;;;;;;;21.04;100.00;100449.41;5016594;28;20198;-64
2023/08/23 06:36:15;;;;;;;8.57;6.37;;;;;;;21.14;100.00;100450.19;5010919;28;20186;-64
2023/08/23 06:38:44;;;;;;;14.17;6.77;;;;;;;21.50;100.00;100444.25;5011797;28;20637;-64
2023/08/23 06:41:09;;;;;;;11.50;6.70;;;;;;;22.15;100.00;100449.31;5009782;28;20275;-64
2023/08/23 06:43:35;;;;;;;9.30;5.93;;;;;;;23.02;100.00;100457.31;5018152;28;20317;-64
2023/08/23 06:46:01;;;;;;;13.50;7.80;;;;;;;23.88;100.00;100461.69;5010532;28;20631;-65
2023/08/23 06:48:26;;;;;;;9.30;6.03;;;;;;;24.71;100.00;100466.03;5011514;28;20546;-64
2023/08/23 06:50:51;;;;;;;9.63;6.03;;;;;;;25.68;100.00;100466.81;5007219;28;20321;-66
2023/08/23 06:53:17;;;;;;;9.35;6.05;;;;;;;27.42;95.59;100455.50;5020444;28;20555;-65
2023/08/23 06:55:42;;;;;;;9.60;6.07;;;;;;;28.37;87.78;100460.66;5012222;28;20202;-65
2023/08/23 06:58:07;;;;;;;9.43;5.40;;;;;;;29.41;78.55;100474.91;5014800;28;20186;-65
2023/08/23 07:00:34;;;;;;;10.10;5.55;;;;;;;30.62;69.31;100464.44;5008750;28;20367;-65
2023/08/23 07:02:59;;;;;;;9.00;5.50;;;;;;;31.56;60.00;100464.88;5025910;28;20297;-65
2023/08/23 07:05:24;;;;;;;8.35;5.63;;;;;;;31.03;63.39;100479.22;5014235;28;20729;-65
2023/08/23 07:07:50;;;;;;;15.07;6.07;;;;;;;31.41;61.13;100469.66;5014457;28;20167;-65
2023/08/23 07:10:15;;;;;;;13.43;5.57;;;;;;;31.98;56.90;100472.41;5005975;28;20572;-65
2023/08/23 07:12:40;;;;;;;12.80;5.40;;;;;;;32.65;54.51;100477.94;5013152;28;20178;-64
2023/08/23 07:15:06;;;;;;;12.15;5.25;;;;;;;33.76;49.58;100478.84;5013488;28;20198;-65
2023/08/23 07:17:33;;;;;;;10.52;5.20;;;;;;;34.03;46.01;100484.59;5014560;28;20541;-64
2023/08/23 07:19:58;;;;;;;10.20;5.13;;;;;;;34.50;42.58;100489.16;5014038;28;20193;-65
2023/08/23 07:22:24;;;;;;;10.05;4.95;;;;;;;34.52;42.46;100495.09;5019288;28;20239;-65
2023/08/23 07:24:49;;;;;;;7.65;4.68;;;;;;;34.46;42.19;100496.03;5013493;28;20574;-65
2023/08/23 07:27:14;;;;;;;11.52;4.95;;;;;;;32.53;48.89;100486.91;5028978;28;20197;-65
2023/08/23 07:29:39;;;;;;;12.77;4.80;;;;;;;33.12;47.63;100493.44;5013719;28;20620;-65
2023/08/23 07:32:05;;;;;;;10.25;4.88;;;;;;;33.39;45.95;100497.63;4999620;28;20245;-65
2023/08/23 07:34:30;;;;;;;11.70;5.13;;;;;;;34.51;42.63;100492.63;5033225;28;20633;-64
2023/08/23 07:36:56;;;;;;;7.53;4.32;;;;;;;35.00;40.81;100503.06;5033958;28;20269;-64
2023/08/23 07:39:23;;;;;;;10.00;4.82;;;;;;;35.76;39.46;100499.38;5033617;28;20276;-64
2023/08/23 07:41:49;;;;;;;9.13;3.85;;;;;;;35.97;38.28;100500.53;5022310;28;20280;-64
2023/08/23 07:44:14;;;;;;;11.77;3.47;;;;;;;37.74;35.06;100505.97;5014821;28;20666;-65
2023/08/23 07:46:39;;;;;;;6.45;4.10;;;;;;;37.92;33.00;100502.13;5014162;28;20266;-65
2023/08/23 07:49:05;;;;;;;8.05;3.17;;;;;;;37.75;33.17;100512.97;5014662;28;20191;-66
2023/08/23 07:51:30;;;;;;;6.32;3.63;;;;;;;38.65;32.15;100505.25;5014688;28;20288;-64
2023/08/23 07:53:55;;;;;;;9.52;3.25;;;;;;;39.10;31.53;100503.00;5017606;28;20210;-64
2023/08/23 07:56:21;;;;;;;15.73;3.60;;;;;;;39.02;31.84;100513.22;5012992;28;20202;-65
2023/08/23 07:58:46;;;;;;;9.48;3.95;;;;;;;39.02;31.08;100507.03;5013918;28;20187;-64
2023/08/23 08:01:11;;;;;;;7.85;3.95;;;;;;;39.06;31.69;100502.72;5014315;28;20221;-64
2023/08/23 08:03:36;;;;;;;7.05;3.65;;;;;;;38.74;32.22;100506.38;5039784;28;20213;-64
2023/08/23 08:06:02;;;;;;;12.45;4.03;;;;;;;35.29;36.31;100498.53;5032344;28;20223;-65
2023/08/23 08:08:27;;;;;;;8.93;3.60;;;;;;;36.57;35.66;100498.22;5032866;28;20550;-63
2023/08/23 08:10:52;;;;;;;6.30;3.30;;;;;;;37.70;32.13;100510.22;5029307;28;20282;-64
2023/08/23 08:13:18;;;;;;;8.70;2.50;;;;;;;37.33;32.07;100502.88;5042280;28;20268;-65
2023/08/23 08:15:43;;;;;;;9.43;3.05;;;;;;;36.58;33.74;100503.34;5032275;28;20185;-65
2023/08/23 08:18:08;;;;;;;5.47;3.17;;;;;;;34.05;38.43;100503.03;5033210;28;20545;-65
2023/08/23 08:20:33;;;;;;;5.57;3.28;;;;;;;33.04;41.14;100496.41;5026682;28;20271;-64
2023/08/23 08:22:59;;;;;;;6.45;3.17;;;;;;;34.29;38.64;100500.41;5044529;28;20637;-65
2023/08/23 08:25:25;;;;;;;5.80;3.00;;;;;;;35.58;35.86;100505.78;5032206;28;20174;-65
2023/08/23 08:27:51;;;;;;;6.95;3.25;;;;;;;35.83;36.10;100506.19;5032523;28;20580;-65
2023/08/23 08:30:16;;;;;;;8.70;3.42;;;;;;;36.32;34.74;100505.63;5024179;28;20178;-65
2023/08/23 08:32:42;;;;;;;7.18;3.25;;;;;;;34.67;38.03;100497.28;5046128;28;20322;-64
2023/08/23 08:35:07;;;;;;;8.98;3.75;;;;;;;35.14;37.69;100495.56;5030724;28;20182;-64
2023/08/23 08:37:33;;;;;;;9.50;3.13;;;;;;;35.87;36.45;100503.84;5032846;28;20192;-64
2023/08/23 08:39:58;;;;;;;6.38;2.85;;;;;;;37.75;33.23;100512.16;5032068;28;20178;-65
2023/08/23 08:42:23;;;;;;;5.70;3.15;;;;;;;37.59;31.90;100509.31;5037324;28;20225;-65
2023/08/23 08:44:48;;;;;;;6.55;3.05;;;;;;;37.23;32.14;100511.63;5031623;28;20205;-65
2023/08/23 08:47:14;;;;;;;6.13;2.88;;;;;;;33.33;39.36;100502.03;5032552;28;20206;-64
2023/08/23 08:49:39;;;;;;;5.97;3.47;;;;;;;31.82;45.08;100493.16;5032143;28;20236;-64
2023/08/23 08:52:05;;;;;;;8.10;3.05;;;;;;;34.82;38.38;100502.13;5037066;28;20225;-64
2023/08/23 08:54:33;;;;;;;4.65;2.55;;;;;;;37.02;34.06;100499.09;5031925;28;20209;-64
2023/08/23 08:56:59;;;;;;;6.15;2.67;;;;;;;37.73;31.68;100506.22;5030966;28;20256;-65
2023/08/23 08:59:25;;;;;;;5.90;2.63;;;;;;;36.49;33.13;100507.50;5031973;28;20613;-65
2023/08/23 09:01:50;;;;;;;8.30;2.97;;;;;;;36.32;33.72;100502.97;5021176;28;20375;-65
2023/08/23 09:04:16;;;;;;;8.80;2.97;;;;;;;36.32;34.08;100496.78;4990892;28;20278;-65
2023/08/23 09:06:42;;;;;;;8.68;2.53;;;;;;;36.11;34.97;100498.34;5004324;28;20190;-64
2023/08/23 09:09:08;;;;;;;12.73;3.28;;;;;;;37.10;33.17;100498.63;5012307;28;20183;-65
2023/08/23 09:11:34;;;;;;;4.78;3.33;;;;;;;38.49;31.96;100499.00;5014502;28;20293;-65
2023/08/23 09:14:12;;;;;;;8.02;3.05;;;;;;;36.83;31.86;100494.00;5033298;28;20265;-65
2023/08/23 09:16:38;;;;;;;9.70;3.00;;;;;;;36.12;33.26;100482.06;5031917;28;20182;-65
2023/08/23 09:19:04;;;;;;;10.73;3.40;;;;;;;36.40;32.88;100490.25;5031864;28;20650;-64
2023/08/23 09:21:29;;;;;;;8.13;3.60;;;;;;;37.24;31.43;100485.63;5020866;28;20265;-65
2023/08/23 09:23:54;;;;;;;8.30;3.00;;;;;;;36.95;32.07;100473.28;5015776;28;20206;-65
2023/08/23 09:26:20;;;;;;;9.23;2.90;;;;;;;37.60;32.34;100470.69;5011454;28;20210;-65
2023/08/23 09:28:45;;;;;;;8.00;2.70;;;;;;;38.19;31.65;100479.72;5012167;28;20245;-65
2023/08/23 09:31:10;;;;;;;6.45;3.13;;;;;;;38.76;30.54;100487.34;5020176;28;20229;-64
2023/08/23 09:33:38;;;;;;;8.40;3.20;;;;;;;38.56;30.45;100484.25;5038148;28;20257;-64
2023/08/23 09:36:03;;;;;;;9.10;3.17;;;;;;;38.39;30.02;100487.16;5031164;28;20178;-64
2023/08/23 09:38:29;;;;;;;9.93;3.15;;;;;;;37.62;30.52;100486.53;5031641;28;20174;-64
2023/08/23 09:40:55;;;;;;;5.32;3.00;;;;;;;38.73;30.22;100486.75;5020735;28;20312;-65
2023/08/23 09:43:22;;;;;;;8.20;3.45;;;;;;;38.35;30.44;100482.53;5019967;28;20214;-65
2023/08/23 09:45:48;;;;;;;10.73;3.05;;;;;;;34.99;33.61;100472.03;5010970;28;20665;-65
2023/08/23 09:48:15;;;;;;;6.07;2.78;;;;;;;36.98;33.70;100474.63;4999205;28;20257;-64
2023/08/23 09:50:41;;;;;;;6.85;3.00;;;;;;;36.98;32.32;100482.69;5011577;28;20229;-63
2023/08/23 09:53:15;;;;;;;6.45;2.22;;;;;;;38.82;28.68;100483.59;5041821;28;20181;-63
2023/08/23 09:55:42;;;;;;;5.00;2.67;;;;;;;39.59;26.09;100486.44;5030555;28;20205;-65
2023/08/23 09:58:08;;;;;;;8.45;2.90;;;;;;;39.63;27.88;100482.13;5031738;28;20547;-64
2023/08/23 10:00:34;;;;;;;4.65;2.70;;;;;;;40.43;25.95;100479.91;5025435;28;20225;-64
2023/08/23 10:02:59;;;;;;;5.30;2.28;;;;;;;41.13;25.89;100481.75;5042823;28;20189;-65
2023/08/23 10:05:25;;;;;;;7.50;2.47;;;;;;;41.38;25.90;100488.88;5031035;28;20260;-65
2023/08/23 10:07:53;;;;;;;5.70;2.85;;;;;;;39.58;27.72;100473.25;5031414;28;20264;-64
2023/08/23 10:10:19;;;;;;;5.38;2.35;;;;;;;39.45;27.40;100472.72;5023030;28;20189;-64
2023/08/23 10:12:48;;;;;;;7.30;2.60;;;;;;;40.45;27.31;100478.53;5044982;28;20178;-65
2023/08/23 10:15:15;;;;;;;4.30;2.42;;;;;;;40.79;26.36;100475.16;5031145;28;20190;-65
2023/08/23 10:17:45;;;;;;;6.40;2.42;;;;;;;40.69;26.49;100467.13;5031252;28;20216;-65
2023/08/23 10:20:11;;;;;;;8.40;2.58;;;;;;;41.30;26.31;100473.25;5022186;28;20189;-65
2023/08/23 10:22:37;;;;;;;5.60;2.63;;;;;;;42.74;24.19;100482.66;5029272;28;20214;-65
2023/08/23 10:25:15;;;;;;;21.98;3.05;;;;;;;42.88;22.51;100473.81;5030646;28;20291;-65
2023/08/23 10:27:41;;;;;;;8.60;2.80;;;;;;;42.84;23.67;100473.59;5030158;28;20185;-65
2023/08/23 10:30:07;;;;;;;4.50;2.45;;;;;;;42.38;24.70;100483.09;5022444;28;20208;-64
2023/08/23 10:32:36;;;;;;;5.57;2.60;;;;;;;39.11;25.63;100475.06;5048756;28;20178;-65
2023/08/23 10:35:02;;;;;;;6.18;2.25;;;;;;;38.67;26.95;100473.56;5034435;28;20186;-65
2023/08/23 10:37:27;;;;;;;3.15;1.95;;;;;;;39.32;27.09;100468.69;5035220;28;20193;-64
2023/08/23 10:39:54;;;;;;;9.32;2.83;;;;;;;37.86;28.80;100473.63;5034826;28;20189;-64
2023/08/23 10:42:21;;;;;;;5.72;2.67;;;;;;;36.64;30.42;100456.81;5039194;28;20278;-64
2023/08/23 10:45:04;;;;;;;6.22;2.38;;;;;;;34.85;33.68;100453.56;5034026;28;20255;-64
2023/08/23 10:47:35;;;;;;;5.80;2.42;;;;;;;33.90;34.68;100452.78;5034492;28;20181;-64
2023/08/23 10:50:01;;;;;;;3.90;1.90;;;;;;;33.35;36.66;100457.28;5034821;28;20635;-65
2023/08/23 10:52:26;;;;;;;7.05;2.08;;;;;;;31.54;37.76;100441.19;5039681;28;20225;-65
2023/08/23 10:54:52;;;;;;;3.08;1.85;;;;;;;30.70;40.92;100443.78;5034246;28;20621;-64
2023/08/23 10:57:17;;;;;;;6.50;2.50;;;;;;;29.69;44.73;100437.66;5034431;28;20390;-64
2023/08/23 10:59:43;;;;;;;4.05;2.10;;;;;;;29.13;49.64;100436.88;5034453;28;20236;-64
2023/08/23 11:02:09;;;;;;;2.42;1.80;;;;;;;29.33;54.76;100432.72;5039336;28;20720;-64
2023/08/23 11:04:34;;;;;;;4.75;2.08;;;;;;;29.14;55.74;100432.41;5034246;28;20229;-64
2023/08/23 11:06:59;;;;;;;3.72;2.13;;;;;;;29.40;57.13;100428.25;5034217;28;20201;-64
2023/08/23 11:09:24;;;;;;;4.30;2.30;;;;;;;29.13;55.54;100425.47;5033151;28;20178;-63
2023/08/23 11:11:50;;;;;;;6.57;2.45;;;;;;;29.14;56.85;100435.88;5023005;28;20229;-66